Terminal Aerodrome Forecast
Issued by NWS

Home | Current Version | Previous Version | Text Only | Print | Product List | Glossary On
Versions: 1 2 3 4 5 6 7 8 9 10 11 12 13 14 15 16 17 18 19 20 21 22 23
000
FTUS41 KILN 220425 AAC
TAFLCK
TAF AMD
KLCK 220425Z 2204/2224 VRB03KT 1/2SM FG VCSH SCT018 OVC025
     FM220600 19004KT 5SM BR VCSH SCT018 OVC025
     FM220800 16005KT P6SM BKN080 WS020/22040KT
     FM221700 17012G20KT P6SM SCT100 BKN150 WS020/22040KT
     FM221900 17012G20KT P6SM VCSH BKN060
     FM222200 17012G20KT 4SM -SHRA BR OVC012=

USA.gov is the U.S. government's official web portal to all federal, state and local government web resources and services.